CheckWX is a tool to help pilots better visualize weather data.  It is not intended as a substitute for an official pre-flight weather briefing.

16:45:11 UTC

CYHZ TAF
Halifax / Stanfield International Airport
Halifax, Canada
TAF CYHZ 201438Z 2015/2112 31015G25KT P6SM SCT015 TEMPO 2015/2018 5SM -SHSN BKN015 PROB30 2015/2018 2SM -SHSN FM201800 30015G25KT P6SM BKN030 TEMPO 2018/2103 P6SM -SHSN BKN020 BECMG 2019/2021 29012G22KT FM210300 33010G20KT P6SM BKN030 BECMG 2103/2105 34008KT RMK NXT FCST BY 201800Z

Feb-20@
15:00 UTC

Feb-20 @ 15:00 UTC

Feb-20@
18:00 UTC

Feb-20 @ 18:00 UTC

TAF CYHZ 201438Z 2015/2112 31015G25KT P6SM SCT015
Wind
  • 310° at 15 KTS
  • {Gusting to 25 KTS
Cloud Levels
  • Scattered at 1,500' AGL

Feb-20@
15:00 UTC

Feb-20 @ 15:00 UTC

Feb-20@
18:00 UTC

Feb-20 @ 18:00 UTC

TEMPO 2015/2018 5SM -SHSN BKN015

Temporary

Temporary Changes expected for less than half the time period

Conditions
Light Snow
Cloud Levels
  • Broken at 1,500' AGL

Feb-20@
15:00 UTC

Feb-20 @ 15:00 UTC

Feb-20@
18:00 UTC

Feb-20 @ 18:00 UTC

PROB30 2015/2018 2SM -SHSN

Probable - 30% Likelihood

Probable - 30% Likelihood during this time.

Conditions
Light Snow

Feb-20@
18:00 UTC

Feb-20 @ 18:00 UTC

Feb-20@
19:00 UTC

Feb-20 @ 19:00 UTC

FM201800 30015G25KT P6SM BKN030

From

From Standard forecast or significant change

Wind
  • 300° at 15 KTS
  • {Gusting to 25 KTS
Cloud Levels
  • Broken at 3,000' AGL

Feb-20@
18:00 UTC

Feb-20 @ 18:00 UTC

Feb-21@
03:00 UTC

Feb-21 @ 03:00 UTC

TEMPO 2018/2103 P6SM -SHSN BKN020

Temporary

Temporary Changes expected for less than half the time period

Conditions
Light Snow
Cloud Levels
  • Broken at 2,000' AGL

Feb-20@
19:00 UTC

Feb-20 @ 19:00 UTC

Feb-21@
03:00 UTC

Feb-21 @ 03:00 UTC

BECMG 2019/2021 29012G22KT

Becoming

Becoming Conditions expected by Thu, Feb 20, 2020 @ 21:00 UTC

Wind
  • 290° at 12 KTS
  • {Gusting to 22 KTS
Cloud Levels
  • Broken at 3,000' AGL

Feb-21@
03:00 UTC

Feb-21 @ 03:00 UTC

Feb-21@
12:00 UTC

Feb-21 @ 12:00 UTC

FM210300 33010G20KT P6SM BKN030

From

From Standard forecast or significant change

Wind
  • 330° at 10 KTS
  • {Gusting to 20 KTS
Cloud Levels
  • Broken at 3,000' AGL

Feb-21@
03:00 UTC

Feb-21 @ 03:00 UTC

Feb-21@
12:00 UTC

Feb-21 @ 12:00 UTC

BECMG 2103/2105 34008KT RMK NXT FCST BY 201800Z

Becoming

Becoming Conditions expected by Fri, Feb 21, 2020 @ 05:00 UTC

Wind
  • 340° at 8 KTS
Cloud Levels
  • Broken at 3,000' AGL